sensor_id;sensor_type;location;lat;lon;timestamp;P1;durP1;ratioP1;P2;durP2;ratioP2
22287;SDS011;11312;51.464;6.968;2023-11-18T00:01:08;8.32;;;3.58;;
22287;SDS011;11312;51.464;6.968;2023-11-18T00:03:34;6.40;;;2.75;;
22287;SDS011;11312;51.464;6.968;2023-11-18T00:06:00;6.28;;;2.75;;
22287;SDS011;11312;51.464;6.968;2023-11-18T00:08:26;6.28;;;2.75;;
22287;SDS011;11312;51.464;6.968;2023-11-18T00:10:51;9.23;;;3.97;;
22287;SDS011;11312;51.464;6.968;2023-11-18T00:13:17;6.95;;;3.03;;
22287;SDS011;11312;51.464;6.968;2023-11-18T00:15:43;13.80;;;4.55;;
22287;SDS011;11312;51.464;6.968;2023-11-18T00:18:11;9.40;;;3.70;;
22287;SDS011;11312;51.464;6.968;2023-11-18T00:20:37;10.65;;;3.42;;
22287;SDS011;11312;51.464;6.968;2023-11-18T00:23:02;8.02;;;3.58;;
22287;SDS011;11312;51.464;6.968;2023-11-18T00:25:31;5.78;;;2.55;;
22287;SDS011;11312;51.464;6.968;2023-11-18T00:28:00;8.23;;;3.75;;
22287;SDS011;11312;51.464;6.968;2023-11-18T00:30:25;6.32;;;2.75;;
22287;SDS011;11312;51.464;6.968;2023-11-18T00:32:53;6.72;;;3.15;;
22287;SDS011;11312;51.464;6.968;2023-11-18T00:35:19;8.52;;;3.72;;
22287;SDS011;11312;51.464;6.968;2023-11-18T00:37:44;11.23;;;4.65;;
22287;SDS011;11312;51.464;6.968;2023-11-18T00:40:10;5.90;;;2.47;;
22287;SDS011;11312;51.464;6.968;2023-11-18T00:42:36;7.80;;;2.80;;
22287;SDS011;11312;51.464;6.968;2023-11-18T00:45:03;9.07;;;3.17;;
22287;SDS011;11312;51.464;6.968;2023-11-18T00:47:29;9.38;;;4.00;;
22287;SDS011;11312;51.464;6.968;2023-11-18T00:49:55;8.27;;;3.05;;
22287;SDS011;11312;51.464;6.968;2023-11-18T00:52:22;6.35;;;2.75;;
22287;SDS011;11312;51.464;6.968;2023-11-18T00:54:48;6.35;;;2.78;;
22287;SDS011;11312;51.464;6.968;2023-11-18T00:57:14;10.20;;;3.25;;
22287;SDS011;11312;51.464;6.968;2023-11-18T00:59:42;7.13;;;3.05;;
22287;SDS011;11312;51.464;6.968;2023-11-18T01:02:08;7.78;;;3.13;;
22287;SDS011;11312;51.464;6.968;2023-11-18T01:04:34;6.68;;;3.17;;
22287;SDS011;11312;51.464;6.968;2023-11-18T01:06:59;8.95;;;3.25;;
22287;SDS011;11312;51.464;6.968;2023-11-18T01:09:25;8.73;;;3.63;;
22287;SDS011;11312;51.464;6.968;2023-11-18T01:11:52;7.05;;;2.88;;
22287;SDS011;11312;51.464;6.968;2023-11-18T01:14:17;6.85;;;2.28;;
22287;SDS011;11312;51.464;6.968;2023-11-18T01:16:44;7.38;;;3.30;;
22287;SDS011;11312;51.464;6.968;2023-11-18T01:19:10;7.93;;;3.72;;
22287;SDS011;11312;51.464;6.968;2023-11-18T01:21:36;4.90;;;2.10;;
22287;SDS011;11312;51.464;6.968;2023-11-18T01:24:01;6.40;;;2.90;;
22287;SDS011;11312;51.464;6.968;2023-11-18T01:26:27;6.32;;;2.65;;
22287;SDS011;11312;51.464;6.968;2023-11-18T01:28:53;6.03;;;2.45;;
22287;SDS011;11312;51.464;6.968;2023-11-18T01:31:20;6.63;;;2.42;;
22287;SDS011;11312;51.464;6.968;2023-11-18T01:33:46;5.72;;;2.33;;
22287;SDS011;11312;51.464;6.968;2023-11-18T01:36:15;5.95;;;2.50;;
22287;SDS011;11312;51.464;6.968;2023-11-18T01:38:42;5.78;;;2.33;;
22287;SDS011;11312;51.464;6.968;2023-11-18T01:41:08;6.70;;;3.10;;
22287;SDS011;11312;51.464;6.968;2023-11-18T01:43:34;5.72;;;2.40;;
22287;SDS011;11312;51.464;6.968;2023-11-18T01:46:00;6.43;;;2.72;;
22287;SDS011;11312;51.464;6.968;2023-11-18T01:48:28;7.40;;;2.70;;
22287;SDS011;11312;51.464;6.968;2023-11-18T01:50:56;10.18;;;3.28;;
22287;SDS011;11312;51.464;6.968;2023-11-18T01:53:23;9.45;;;3.45;;
22287;SDS011;11312;51.464;6.968;2023-11-18T01:55:49;4.93;;;2.10;;
22287;SDS011;11312;51.464;6.968;2023-11-18T01:58:15;6.53;;;2.72;;
22287;SDS011;11312;51.464;6.968;2023-11-18T02:00:45;5.57;;;2.25;;
22287;SDS011;11312;51.464;6.968;2023-11-18T02:03:14;6.22;;;2.85;;
22287;SDS011;11312;51.464;6.968;2023-11-18T02:05:40;6.70;;;2.65;;
22287;SDS011;11312;51.464;6.968;2023-11-18T02:08:08;7.22;;;3.25;;
22287;SDS011;11312;51.464;6.968;2023-11-18T02:13:33;7.53;;;3.08;;
22287;SDS011;11312;51.464;6.968;2023-11-18T02:16:01;6.65;;;2.67;;
22287;SDS011;11312;51.464;6.968;2023-11-18T02:18:29;4.95;;;2.30;;
22287;SDS011;11312;51.464;6.968;2023-11-18T02:20:55;6.18;;;2.38;;
22287;SDS011;11312;51.464;6.968;2023-11-18T02:23:22;7.25;;;3.25;;
22287;SDS011;11312;51.464;6.968;2023-11-18T02:25:49;8.25;;;2.90;;
22287;SDS011;11312;51.464;6.968;2023-11-18T02:28:14;6.03;;;2.83;;
22287;SDS011;11312;51.464;6.968;2023-11-18T02:30:40;6.18;;;2.67;;
22287;SDS011;11312;51.464;6.968;2023-11-18T02:33:10;4.68;;;1.95;;
22287;SDS011;11312;51.464;6.968;2023-11-18T02:35:59;7.32;;;2.58;;
22287;SDS011;11312;51.464;6.968;2023-11-18T02:38:30;5.57;;;2.30;;
22287;SDS011;11312;51.464;6.968;2023-11-18T02:41:02;7.35;;;2.75;;
22287;SDS011;11312;51.464;6.968;2023-11-18T02:43:35;6.95;;;2.75;;
22287;SDS011;11312;51.464;6.968;2023-11-18T02:46:03;8.88;;;3.33;;
22287;SDS011;11312;51.464;6.968;2023-11-18T02:48:30;7.38;;;3.20;;
22287;SDS011;11312;51.464;6.968;2023-11-18T02:50:57;8.40;;;3.00;;
22287;SDS011;11312;51.464;6.968;2023-11-18T02:53:27;6.75;;;2.78;;
22287;SDS011;11312;51.464;6.968;2023-11-18T02:55:52;6.90;;;2.95;;
22287;SDS011;11312;51.464;6.968;2023-11-18T02:58:19;4.90;;;2.15;;
22287;SDS011;11312;51.464;6.968;2023-11-18T03:00:45;5.25;;;2.10;;
22287;SDS011;11312;51.464;6.968;2023-11-18T03:03:11;8.38;;;3.10;;
22287;SDS011;11312;51.464;6.968;2023-11-18T03:05:37;7.72;;;3.45;;
22287;SDS011;11312;51.464;6.968;2023-11-18T03:08:03;5.35;;;2.42;;
22287;SDS011;11312;51.464;6.968;2023-11-18T03:10:31;8.45;;;3.22;;
22287;SDS011;11312;51.464;6.968;2023-11-18T03:13:00;6.93;;;2.90;;
22287;SDS011;11312;51.464;6.968;2023-11-18T03:15:26;6.93;;;2.92;;
22287;SDS011;11312;51.464;6.968;2023-11-18T03:17:52;5.95;;;2.95;;
22287;SDS011;11312;51.464;6.968;2023-11-18T03:20:19;6.60;;;2.65;;
22287;SDS011;11312;51.464;6.968;2023-11-18T03:22:48;6.28;;;2.83;;
22287;SDS011;11312;51.464;6.968;2023-11-18T03:25:15;7.07;;;2.72;;
22287;SDS011;11312;51.464;6.968;2023-11-18T03:27:42;4.63;;;2.05;;
22287;SDS011;11312;51.464;6.968;2023-11-18T03:30:08;7.70;;;2.97;;
22287;SDS011;11312;51.464;6.968;2023-11-18T03:32:35;7.22;;;2.90;;
22287;SDS011;11312;51.464;6.968;2023-11-18T03:35:04;7.85;;;3.20;;
22287;SDS011;11312;51.464;6.968;2023-11-18T03:37:40;7.18;;;3.03;;
22287;SDS011;11312;51.464;6.968;2023-11-18T03:40:10;6.75;;;2.53;;
22287;SDS011;11312;51.464;6.968;2023-11-18T03:42:37;4.65;;;2.00;;
22287;SDS011;11312;51.464;6.968;2023-11-18T03:45:05;4.35;;;1.92;;
22287;SDS011;11312;51.464;6.968;2023-11-18T03:47:31;5.65;;;2.70;;
22287;SDS011;11312;51.464;6.968;2023-11-18T03:49:57;6.93;;;3.13;;
22287;SDS011;11312;51.464;6.968;2023-11-18T03:52:23;7.40;;;3.05;;
22287;SDS011;11312;51.464;6.968;2023-11-18T03:54:49;5.78;;;2.45;;
22287;SDS011;11312;51.464;6.968;2023-11-18T03:57:14;6.28;;;2.30;;
22287;SDS011;11312;51.464;6.968;2023-11-18T03:59:40;7.15;;;3.00;;
22287;SDS011;11312;51.464;6.968;2023-11-18T04:02:06;7.63;;;3.20;;
22287;SDS011;11312;51.464;6.968;2023-11-18T04:04:32;6.15;;;2.50;;
22287;SDS011;11312;51.464;6.968;2023-11-18T04:06:58;5.72;;;2.60;;
22287;SDS011;11312;51.464;6.968;2023-11-18T04:09:26;5.63;;;2.80;;
22287;SDS011;11312;51.464;6.968;2023-11-18T04:11:52;7.50;;;3.33;;
22287;SDS011;11312;51.464;6.968;2023-11-18T04:14:17;3.85;;;1.80;;
22287;SDS011;11312;51.464;6.968;2023-11-18T04:16:46;5.88;;;2.72;;
22287;SDS011;11312;51.464;6.968;2023-11-18T04:19:12;6.65;;;2.95;;
22287;SDS011;11312;51.464;6.968;2023-11-18T04:21:38;5.88;;;2.47;;
22287;SDS011;11312;51.464;6.968;2023-11-18T04:24:04;7.90;;;3.03;;
22287;SDS011;11312;51.464;6.968;2023-11-18T04:26:31;10.63;;;4.25;;
22287;SDS011;11312;51.464;6.968;2023-11-18T04:28:57;8.13;;;3.42;;
22287;SDS011;11312;51.464;6.968;2023-11-18T04:31:23;8.25;;;3.42;;
22287;SDS011;11312;51.464;6.968;2023-11-18T04:33:49;7.75;;;3.28;;
22287;SDS011;11312;51.464;6.968;2023-11-18T04:36:15;6.47;;;2.75;;
22287;SDS011;11312;51.464;6.968;2023-11-18T04:38:41;5.90;;;2.55;;
22287;SDS011;11312;51.464;6.968;2023-11-18T04:41:08;6.88;;;3.22;;
22287;SDS011;11312;51.464;6.968;2023-11-18T04:43:34;6.20;;;2.80;;
22287;SDS011;11312;51.464;6.968;2023-11-18T04:46:00;6.80;;;2.83;;
22287;SDS011;11312;51.464;6.968;2023-11-18T04:48:25;5.97;;;2.67;;
22287;SDS011;11312;51.464;6.968;2023-11-18T04:50:51;7.28;;;3.15;;
22287;SDS011;11312;51.464;6.968;2023-11-18T04:53:17;5.82;;;2.30;;
22287;SDS011;11312;51.464;6.968;2023-11-18T04:55:42;7.18;;;3.38;;
22287;SDS011;11312;51.464;6.968;2023-11-18T04:58:10;7.50;;;3.25;;
22287;SDS011;11312;51.464;6.968;2023-11-18T05:00:36;7.05;;;3.17;;
22287;SDS011;11312;51.464;6.968;2023-11-18T05:03:03;6.72;;;2.70;;
22287;SDS011;11312;51.464;6.968;2023-11-18T05:05:30;6.57;;;2.58;;
22287;SDS011;11312;51.464;6.968;2023-11-18T05:07:56;7.68;;;3.17;;
22287;SDS011;11312;51.464;6.968;2023-11-18T05:10:22;9.20;;;2.63;;
22287;SDS011;11312;51.464;6.968;2023-11-18T05:12:49;8.70;;;3.88;;
22287;SDS011;11312;51.464;6.968;2023-11-18T05:15:20;7.35;;;3.13;;
22287;SDS011;11312;51.464;6.968;2023-11-18T05:17:49;7.07;;;2.83;;
22287;SDS011;11312;51.464;6.968;2023-11-18T05:20:16;8.63;;;3.35;;
22287;SDS011;11312;51.464;6.968;2023-11-18T05:22:42;5.35;;;2.40;;
22287;SDS011;11312;51.464;6.968;2023-11-18T05:25:08;7.90;;;2.80;;
22287;SDS011;11312;51.464;6.968;2023-11-18T05:27:35;10.57;;;4.18;;
22287;SDS011;11312;51.464;6.968;2023-11-18T05:30:00;6.72;;;2.80;;
22287;SDS011;11312;51.464;6.968;2023-11-18T05:32:26;9.13;;;2.80;;
22287;SDS011;11312;51.464;6.968;2023-11-18T05:34:53;7.35;;;3.30;;
22287;SDS011;11312;51.464;6.968;2023-11-18T05:37:22;5.65;;;2.30;;
22287;SDS011;11312;51.464;6.968;2023-11-18T05:39:53;5.68;;;2.45;;
22287;SDS011;11312;51.464;6.968;2023-11-18T05:42:24;6.03;;;2.30;;
22287;SDS011;11312;51.464;6.968;2023-11-18T05:44:50;5.32;;;2.42;;
22287;SDS011;11312;51.464;6.968;2023-11-18T05:47:23;7.55;;;3.08;;
22287;SDS011;11312;51.464;6.968;2023-11-18T05:49:50;16.05;;;4.18;;
22287;SDS011;11312;51.464;6.968;2023-11-18T05:52:16;7.22;;;3.60;;
22287;SDS011;11312;51.464;6.968;2023-11-18T05:54:42;4.28;;;1.90;;
22287;SDS011;11312;51.464;6.968;2023-11-18T05:57:07;8.45;;;3.20;;
22287;SDS011;11312;51.464;6.968;2023-11-18T05:59:33;7.60;;;3.15;;
22287;SDS011;11312;51.464;6.968;2023-11-18T06:01:59;6.05;;;2.70;;
22287;SDS011;11312;51.464;6.968;2023-11-18T06:04:25;6.70;;;3.05;;
22287;SDS011;11312;51.464;6.968;2023-11-18T06:06:50;4.78;;;2.08;;
22287;SDS011;11312;51.464;6.968;2023-11-18T06:09:17;6.20;;;2.58;;
22287;SDS011;11312;51.464;6.968;2023-11-18T06:11:53;6.72;;;2.33;;
22287;SDS011;11312;51.464;6.968;2023-11-18T06:14:20;5.22;;;2.72;;
22287;SDS011;11312;51.464;6.968;2023-11-18T06:16:49;6.80;;;2.80;;
22287;SDS011;11312;51.464;6.968;2023-11-18T06:19:15;8.02;;;3.28;;
22287;SDS011;11312;51.464;6.968;2023-11-18T06:21:41;7.40;;;3.47;;
22287;SDS011;11312;51.464;6.968;2023-11-18T06:24:07;8.35;;;3.35;;
22287;SDS011;11312;51.464;6.968;2023-11-18T06:26:33;4.95;;;2.10;;
22287;SDS011;11312;51.464;6.968;2023-11-18T06:29:01;8.23;;;3.17;;
22287;SDS011;11312;51.464;6.968;2023-11-18T06:31:26;5.97;;;2.67;;
22287;SDS011;11312;51.464;6.968;2023-11-18T06:33:54;5.72;;;2.75;;
22287;SDS011;11312;51.464;6.968;2023-11-18T06:36:20;5.78;;;2.42;;
22287;SDS011;11312;51.464;6.968;2023-11-18T06:38:50;6.10;;;2.50;;
22287;SDS011;11312;51.464;6.968;2023-11-18T06:41:17;8.85;;;3.85;;
22287;SDS011;11312;51.464;6.968;2023-11-18T06:43:44;4.65;;;2.25;;
22287;SDS011;11312;51.464;6.968;2023-11-18T06:46:32;8.50;;;2.92;;
22287;SDS011;11312;51.464;6.968;2023-11-18T06:49:04;5.75;;;2.28;;
22287;SDS011;11312;51.464;6.968;2023-11-18T06:51:32;5.00;;;2.85;;
22287;SDS011;11312;51.464;6.968;2023-11-18T06:54:02;7.03;;;3.63;;
22287;SDS011;11312;51.464;6.968;2023-11-18T06:56:35;8.10;;;3.00;;
22287;SDS011;11312;51.464;6.968;2023-11-18T06:59:09;8.43;;;3.08;;
22287;SDS011;11312;51.464;6.968;2023-11-18T07:01:37;4.82;;;2.13;;
22287;SDS011;11312;51.464;6.968;2023-11-18T07:04:06;6.25;;;2.63;;
22287;SDS011;11312;51.464;6.968;2023-11-18T07:06:33;5.50;;;2.17;;
22287;SDS011;11312;51.464;6.968;2023-11-18T07:09:03;5.07;;;2.25;;
22287;SDS011;11312;51.464;6.968;2023-11-18T07:11:37;6.03;;;2.25;;
22287;SDS011;11312;51.464;6.968;2023-11-18T07:14:03;5.68;;;2.63;;
22287;SDS011;11312;51.464;6.968;2023-11-18T07:16:29;6.25;;;2.78;;
22287;SDS011;11312;51.464;6.968;2023-11-18T07:18:54;6.75;;;2.90;;
22287;SDS011;11312;51.464;6.968;2023-11-18T07:21:20;8.18;;;2.58;;
22287;SDS011;11312;51.464;6.968;2023-11-18T07:23:45;6.25;;;2.67;;
22287;SDS011;11312;51.464;6.968;2023-11-18T07:26:11;6.60;;;2.50;;
22287;SDS011;11312;51.464;6.968;2023-11-18T07:28:38;5.78;;;2.45;;
22287;SDS011;11312;51.464;6.968;2023-11-18T07:31:04;5.53;;;2.38;;
22287;SDS011;11312;51.464;6.968;2023-11-18T07:33:30;7.13;;;2.92;;
22287;SDS011;11312;51.464;6.968;2023-11-18T07:35:57;8.35;;;2.97;;
22287;SDS011;11312;51.464;6.968;2023-11-18T07:38:23;5.82;;;2.53;;
22287;SDS011;11312;51.464;6.968;2023-11-18T07:40:49;4.72;;;2.00;;
22287;SDS011;11312;51.464;6.968;2023-11-18T07:43:17;8.18;;;2.47;;
22287;SDS011;11312;51.464;6.968;2023-11-18T07:45:46;4.72;;;2.13;;
22287;SDS011;11312;51.464;6.968;2023-11-18T07:48:16;7.35;;;2.80;;
22287;SDS011;11312;51.464;6.968;2023-11-18T07:50:42;6.45;;;2.55;;
22287;SDS011;11312;51.464;6.968;2023-11-18T07:53:15;5.03;;;2.30;;
22287;SDS011;11312;51.464;6.968;2023-11-18T07:55:41;4.55;;;2.20;;
22287;SDS011;11312;51.464;6.968;2023-11-18T07:58:07;6.45;;;2.75;;
22287;SDS011;11312;51.464;6.968;2023-11-18T08:00:39;6.25;;;2.83;;
22287;SDS011;11312;51.464;6.968;2023-11-18T08:03:08;6.88;;;2.92;;
22287;SDS011;11312;51.464;6.968;2023-11-18T08:05:38;5.43;;;2.30;;
22287;SDS011;11312;51.464;6.968;2023-11-18T08:08:07;6.95;;;3.45;;
22287;SDS011;11312;51.464;6.968;2023-11-18T08:10:35;5.38;;;2.22;;
22287;SDS011;11312;51.464;6.968;2023-11-18T08:13:05;4.85;;;2.10;;
22287;SDS011;11312;51.464;6.968;2023-11-18T08:15:32;5.65;;;2.45;;
22287;SDS011;11312;51.464;6.968;2023-11-18T08:17:59;5.68;;;2.03;;
22287;SDS011;11312;51.464;6.968;2023-11-18T08:20:25;4.75;;;2.08;;
22287;SDS011;11312;51.464;6.968;2023-11-18T08:22:51;7.53;;;2.92;;
22287;SDS011;11312;51.464;6.968;2023-11-18T08:25:17;5.93;;;2.38;;
22287;SDS011;11312;51.464;6.968;2023-11-18T08:27:45;4.60;;;2.00;;
22287;SDS011;11312;51.464;6.968;2023-11-18T08:30:11;4.03;;;1.80;;
22287;SDS011;11312;51.464;6.968;2023-11-18T08:32:38;4.25;;;2.00;;
22287;SDS011;11312;51.464;6.968;2023-11-18T08:35:05;5.40;;;2.45;;
22287;SDS011;11312;51.464;6.968;2023-11-18T08:37:33;4.32;;;2.00;;
22287;SDS011;11312;51.464;6.968;2023-11-18T08:40:00;5.53;;;2.05;;
22287;SDS011;11312;51.464;6.968;2023-11-18T08:42:27;7.85;;;3.40;;
22287;SDS011;11312;51.464;6.968;2023-11-18T08:44:54;4.68;;;1.98;;
22287;SDS011;11312;51.464;6.968;2023-11-18T08:47:21;3.38;;;1.75;;
22287;SDS011;11312;51.464;6.968;2023-11-18T08:49:46;3.72;;;1.83;;
22287;SDS011;11312;51.464;6.968;2023-11-18T08:52:12;4.53;;;2.30;;
22287;SDS011;11312;51.464;6.968;2023-11-18T08:54:38;4.88;;;2.03;;
22287;SDS011;11312;51.464;6.968;2023-11-18T08:57:24;5.82;;;2.45;;
22287;SDS011;11312;51.464;6.968;2023-11-18T08:59:50;3.70;;;1.75;;
22287;SDS011;11312;51.464;6.968;2023-11-18T09:02:19;4.82;;;2.00;;
22287;SDS011;11312;51.464;6.968;2023-11-18T09:04:51;4.93;;;2.10;;
22287;SDS011;11312;51.464;6.968;2023-11-18T09:07:20;4.57;;;2.05;;
22287;SDS011;11312;51.464;6.968;2023-11-18T09:09:46;2.95;;;1.60;;
22287;SDS011;11312;51.464;6.968;2023-11-18T09:12:16;4.75;;;2.15;;
22287;SDS011;11312;51.464;6.968;2023-11-18T09:14:44;4.18;;;2.05;;
22287;SDS011;11312;51.464;6.968;2023-11-18T09:17:13;3.83;;;1.73;;
22287;SDS011;11312;51.464;6.968;2023-11-18T09:19:39;3.45;;;1.70;;
22287;SDS011;11312;51.464;6.968;2023-11-18T09:22:05;3.85;;;1.98;;
22287;SDS011;11312;51.464;6.968;2023-11-18T09:24:31;3.60;;;1.70;;
22287;SDS011;11312;51.464;6.968;2023-11-18T09:26:58;3.83;;;1.73;;
22287;SDS011;11312;51.464;6.968;2023-11-18T09:29:24;3.83;;;1.80;;
22287;SDS011;11312;51.464;6.968;2023-11-18T09:31:50;5.18;;;2.42;;
22287;SDS011;11312;51.464;6.968;2023-11-18T09:34:17;4.72;;;2.15;;
22287;SDS011;11312;51.464;6.968;2023-11-18T09:36:51;3.20;;;1.73;;
22287;SDS011;11312;51.464;6.968;2023-11-18T09:39:18;3.50;;;1.83;;
22287;SDS011;11312;51.464;6.968;2023-11-18T09:42:03;4.18;;;2.17;;
22287;SDS011;11312;51.464;6.968;2023-11-18T09:44:33;3.22;;;1.67;;
22287;SDS011;11312;51.464;6.968;2023-11-18T09:47:00;5.32;;;2.30;;
22287;SDS011;11312;51.464;6.968;2023-11-18T09:49:34;4.78;;;2.33;;
22287;SDS011;11312;51.464;6.968;2023-11-18T09:52:09;3.22;;;1.65;;
22287;SDS011;11312;51.464;6.968;2023-11-18T09:54:55;3.63;;;1.75;;
22287;SDS011;11312;51.464;6.968;2023-11-18T10:00:08;2.95;;;1.60;;
22287;SDS011;11312;51.464;6.968;2023-11-18T10:02:51;3.88;;;1.83;;
22287;SDS011;11312;51.464;6.968;2023-11-18T10:05:21;3.25;;;1.80;;
22287;SDS011;11312;51.464;6.968;2023-11-18T10:07:48;4.38;;;2.22;;
22287;SDS011;11312;51.464;6.968;2023-11-18T10:10:14;5.72;;;2.22;;
22287;SDS011;11312;51.464;6.968;2023-11-18T10:12:43;3.28;;;1.70;;
22287;SDS011;11312;51.464;6.968;2023-11-18T10:15:17;3.75;;;1.75;;
22287;SDS011;11312;51.464;6.968;2023-11-18T10:17:48;3.13;;;1.67;;
22287;SDS011;11312;51.464;6.968;2023-11-18T10:20:48;2.33;;;1.40;;
22287;SDS011;11312;51.464;6.968;2023-11-18T10:23:18;5.28;;;2.35;;
22287;SDS011;11312;51.464;6.968;2023-11-18T10:25:46;4.88;;;1.98;;
22287;SDS011;11312;51.464;6.968;2023-11-18T10:31:05;2.65;;;1.50;;
22287;SDS011;11312;51.464;6.968;2023-11-18T10:33:34;5.15;;;2.47;;
22287;SDS011;11312;51.464;6.968;2023-11-18T10:36:02;4.75;;;2.35;;
22287;SDS011;11312;51.464;6.968;2023-11-18T10:38:29;4.18;;;1.92;;
22287;SDS011;11312;51.464;6.968;2023-11-18T10:40:57;2.85;;;1.60;;
22287;SDS011;11312;51.464;6.968;2023-11-18T10:43:26;4.05;;;2.17;;
22287;SDS011;11312;51.464;6.968;2023-11-18T10:46:05;3.30;;;1.70;;
22287;SDS011;11312;51.464;6.968;2023-11-18T10:48:41;3.78;;;1.70;;
22287;SDS011;11312;51.464;6.968;2023-11-18T10:51:12;4.68;;;2.10;;
22287;SDS011;11312;51.464;6.968;2023-11-18T10:53:42;4.55;;;2.10;;
22287;SDS011;11312;51.464;6.968;2023-11-18T10:56:29;3.17;;;1.75;;
22287;SDS011;11312;51.464;6.968;2023-11-18T11:01:31;3.95;;;2.08;;
22287;SDS011;11312;51.464;6.968;2023-11-18T11:03:57;4.45;;;1.77;;
22287;SDS011;11312;51.464;6.968;2023-11-18T11:06:24;3.70;;;1.73;;
22287;SDS011;11312;51.464;6.968;2023-11-18T11:08:51;3.55;;;1.65;;
22287;SDS011;11312;51.464;6.968;2023-11-18T11:11:21;3.97;;;1.85;;
22287;SDS011;11312;51.464;6.968;2023-11-18T11:13:53;2.97;;;1.70;;
22287;SDS011;11312;51.464;6.968;2023-11-18T11:16:21;3.58;;;1.70;;
22287;SDS011;11312;51.464;6.968;2023-11-18T11:18:53;4.78;;;2.05;;
22287;SDS011;11312;51.464;6.968;2023-11-18T11:21:24;3.15;;;1.60;;
22287;SDS011;11312;51.464;6.968;2023-11-18T11:24:04;4.63;;;2.17;;
22287;SDS011;11312;51.464;6.968;2023-11-18T11:29:36;3.33;;;1.90;;
22287;SDS011;11312;51.464;6.968;2023-11-18T11:32:16;3.10;;;1.60;;
22287;SDS011;11312;51.464;6.968;2023-11-18T11:34:53;6.03;;;2.17;;
22287;SDS011;11312;51.464;6.968;2023-11-18T11:37:25;3.72;;;1.80;;
22287;SDS011;11312;51.464;6.968;2023-11-18T11:39:52;5.10;;;2.20;;
22287;SDS011;11312;51.464;6.968;2023-11-18T11:42:19;4.53;;;2.20;;
22287;SDS011;11312;51.464;6.968;2023-11-18T11:44:47;4.07;;;2.10;;
22287;SDS011;11312;51.464;6.968;2023-11-18T11:47:17;3.42;;;1.70;;
22287;SDS011;11312;51.464;6.968;2023-11-18T11:49:54;5.03;;;2.25;;
22287;SDS011;11312;51.464;6.968;2023-11-18T11:52:30;3.13;;;1.65;;
22287;SDS011;11312;51.464;6.968;2023-11-18T11:55:07;2.63;;;1.50;;
22287;SDS011;11312;51.464;6.968;2023-11-18T11:57:41;3.42;;;1.70;;
22287;SDS011;11312;51.464;6.968;2023-11-18T12:00:11;6.85;;;2.90;;
22287;SDS011;11312;51.464;6.968;2023-11-18T12:02:47;4.60;;;2.03;;
22287;SDS011;11312;51.464;6.968;2023-11-18T12:05:15;5.10;;;2.22;;
22287;SDS011;11312;51.464;6.968;2023-11-18T12:07:44;3.60;;;1.90;;
22287;SDS011;11312;51.464;6.968;2023-11-18T12:10:12;3.53;;;1.65;;
22287;SDS011;11312;51.464;6.968;2023-11-18T12:12:45;5.30;;;1.90;;
22287;SDS011;11312;51.464;6.968;2023-11-18T12:15:11;3.85;;;1.90;;
22287;SDS011;11312;51.464;6.968;2023-11-18T12:23:07;4.50;;;2.38;;
22287;SDS011;11312;51.464;6.968;2023-11-18T12:25:48;4.38;;;1.92;;
22287;SDS011;11312;51.464;6.968;2023-11-18T12:28:19;5.90;;;2.63;;
22287;SDS011;11312;51.464;6.968;2023-11-18T12:31:01;4.57;;;2.50;;
22287;SDS011;11312;51.464;6.968;2023-11-18T12:41:44;3.10;;;1.65;;
22287;SDS011;11312;51.464;6.968;2023-11-18T12:44:30;2.85;;;1.60;;
22287;SDS011;11312;51.464;6.968;2023-11-18T12:47:01;3.90;;;1.90;;
22287;SDS011;11312;51.464;6.968;2023-11-18T12:49:47;3.55;;;1.90;;
22287;SDS011;11312;51.464;6.968;2023-11-18T12:52:20;2.95;;;1.60;;
22287;SDS011;11312;51.464;6.968;2023-11-18T12:54:49;2.65;;;1.50;;
22287;SDS011;11312;51.464;6.968;2023-11-18T12:57:26;2.75;;;1.50;;
22287;SDS011;11312;51.464;6.968;2023-11-18T12:59:56;2.92;;;1.63;;
22287;SDS011;11312;51.464;6.968;2023-11-18T13:02:22;3.22;;;1.67;;
22287;SDS011;11312;51.464;6.968;2023-11-18T13:04:51;2.90;;;1.50;;
22287;SDS011;11312;51.464;6.968;2023-11-18T13:07:18;4.90;;;2.13;;
22287;SDS011;11312;51.464;6.968;2023-11-18T13:09:46;3.65;;;2.00;;
22287;SDS011;11312;51.464;6.968;2023-11-18T13:12:13;3.85;;;1.88;;
22287;SDS011;11312;51.464;6.968;2023-11-18T13:14:44;4.22;;;1.67;;
22287;SDS011;11312;51.464;6.968;2023-11-18T13:17:14;3.75;;;1.70;;
22287;SDS011;11312;51.464;6.968;2023-11-18T13:19:43;2.28;;;1.45;;
22287;SDS011;11312;51.464;6.968;2023-11-18T13:22:10;3.47;;;1.70;;
22287;SDS011;11312;51.464;6.968;2023-11-18T13:24:38;5.93;;;2.40;;
22287;SDS011;11312;51.464;6.968;2023-11-18T13:27:05;4.63;;;1.98;;
22287;SDS011;11312;51.464;6.968;2023-11-18T13:29:36;5.00;;;2.30;;
22287;SDS011;11312;51.464;6.968;2023-11-18T13:32:05;4.38;;;1.90;;
22287;SDS011;11312;51.464;6.968;2023-11-18T13:34:32;6.50;;;2.45;;
22287;SDS011;11312;51.464;6.968;2023-11-18T13:37:02;4.72;;;2.28;;
22287;SDS011;11312;51.464;6.968;2023-11-18T13:39:29;3.65;;;1.75;;
22287;SDS011;11312;51.464;6.968;2023-11-18T13:41:56;13.20;;;2.13;;
22287;SDS011;11312;51.464;6.968;2023-11-18T13:44:35;3.55;;;1.95;;
22287;SDS011;11312;51.464;6.968;2023-11-18T13:47:06;4.75;;;1.83;;
22287;SDS011;11312;51.464;6.968;2023-11-18T13:49:32;5.70;;;2.60;;
22287;SDS011;11312;51.464;6.968;2023-11-18T13:52:01;6.72;;;1.90;;
22287;SDS011;11312;51.464;6.968;2023-11-18T13:54:28;3.95;;;1.95;;
22287;SDS011;11312;51.464;6.968;2023-11-18T13:56:55;2.70;;;1.50;;
22287;SDS011;11312;51.464;6.968;2023-11-18T13:59:26;3.17;;;1.65;;
22287;SDS011;11312;51.464;6.968;2023-11-18T14:01:53;3.05;;;1.60;;
22287;SDS011;11312;51.464;6.968;2023-11-18T14:04:19;3.80;;;1.60;;
22287;SDS011;11312;51.464;6.968;2023-11-18T14:06:51;2.95;;;1.60;;
22287;SDS011;11312;51.464;6.968;2023-11-18T14:09:18;3.42;;;1.70;;
22287;SDS011;11312;51.464;6.968;2023-11-18T14:11:46;2.75;;;1.50;;
22287;SDS011;11312;51.464;6.968;2023-11-18T14:14:13;2.90;;;1.67;;
22287;SDS011;11312;51.464;6.968;2023-11-18T14:16:39;3.28;;;1.75;;
22287;SDS011;11312;51.464;6.968;2023-11-18T14:19:05;2.85;;;1.50;;
22287;SDS011;11312;51.464;6.968;2023-11-18T14:21:31;3.08;;;1.65;;
22287;SDS011;11312;51.464;6.968;2023-11-18T14:23:57;2.85;;;1.50;;
22287;SDS011;11312;51.464;6.968;2023-11-18T14:26:28;2.55;;;1.50;;
22287;SDS011;11312;51.464;6.968;2023-11-18T14:28:54;3.00;;;1.55;;
22287;SDS011;11312;51.464;6.968;2023-11-18T14:31:20;3.63;;;1.98;;
22287;SDS011;11312;51.464;6.968;2023-11-18T14:33:47;3.30;;;1.65;;
22287;SDS011;11312;51.464;6.968;2023-11-18T14:36:13;4.10;;;2.08;;
22287;SDS011;11312;51.464;6.968;2023-11-18T14:38:40;3.13;;;1.60;;
22287;SDS011;11312;51.464;6.968;2023-11-18T14:41:05;4.82;;;2.20;;
22287;SDS011;11312;51.464;6.968;2023-11-18T14:43:33;3.00;;;1.58;;
22287;SDS011;11312;51.464;6.968;2023-11-18T14:45:59;2.20;;;1.40;;
22287;SDS011;11312;51.464;6.968;2023-11-18T14:48:25;3.95;;;2.00;;
22287;SDS011;11312;51.464;6.968;2023-11-18T14:50:51;3.60;;;1.75;;
22287;SDS011;11312;51.464;6.968;2023-11-18T14:53:17;2.58;;;1.50;;
22287;SDS011;11312;51.464;6.968;2023-11-18T14:55:42;3.13;;;1.60;;
22287;SDS011;11312;51.464;6.968;2023-11-18T14:58:09;4.10;;;1.98;;
22287;SDS011;11312;51.464;6.968;2023-11-18T15:00:37;3.30;;;1.70;;
22287;SDS011;11312;51.464;6.968;2023-11-18T15:03:02;5.40;;;2.45;;
22287;SDS011;11312;51.464;6.968;2023-11-18T15:05:28;4.05;;;2.15;;
22287;SDS011;11312;51.464;6.968;2023-11-18T15:07:56;3.05;;;1.60;;
22287;SDS011;11312;51.464;6.968;2023-11-18T15:10:24;2.67;;;1.50;;
22287;SDS011;11312;51.464;6.968;2023-11-18T15:12:51;2.88;;;1.50;;
22287;SDS011;11312;51.464;6.968;2023-11-18T15:15:26;4.93;;;2.28;;
22287;SDS011;11312;51.464;6.968;2023-11-18T15:18:04;2.30;;;1.40;;
22287;SDS011;11312;51.464;6.968;2023-11-18T15:20:35;2.45;;;1.50;;
22287;SDS011;11312;51.464;6.968;2023-11-18T15:23:07;3.80;;;1.95;;